Terminal Aerodrome Forecast
Issued by NWS Grand Forks, ND

Home | Current Version | Previous Version | Graphics & Text | Print | Product List | Glossary On
Versions: 1 2 3 4 5 6 7 8 9 10 11 12 13 14 15 16 17 18 19 20 21
000
FTUS43 KFGF 211740
TAFGFK
TAF
KGFK 211740Z 2118/2218 22006KT P6SM SCT100
     FM220100 VRB03KT P6SM OVC050
      TEMPO 2201/2205 4SM -SN BR OVC015
     FM220700 02003KT 1/2SM FG OVC008
     FM221200 01008KT 1 1/2SM BR BKN015 OVC035
     FM221600 01012G20KT 4SM BR BKN020=

USA.gov is the U.S. government's official web portal to all federal, state and local government web resources and services.